Time;durP1;ratioP1;P1;durP2;ratioP2;P2;SDS_P1;SDS_P2;PMS_P1;PMS_P2;Temp;Humidity;BMP_temperature;BMP_pressure;BME280_temperature;BME280_humidity;BME280_pressure;Samples;Min_cycle;Max_cycle;Signal;HPM_P1;HPM_P2
2022/12/16 00:01:35;;;;;;;0.52;0.52;;;;;;;-5.28;92.91;98891.19;4862374;29;20049;-82
2022/12/16 00:04:02;;;;;;;0.90;0.90;;;;;;;-5.26;93.00;98886.63;4862237;29;20049;-83
2022/12/16 00:06:31;;;;;;;0.80;0.80;;;;;;;-5.27;93.07;98884.13;4879004;29;20774;-82
2022/12/16 00:08:59;;;;;;;0.70;0.70;;;;;;;-5.20;92.76;98895.72;4878970;29;20057;-82
2022/12/16 00:11:27;;;;;;;0.75;0.75;;;;;;;-5.19;93.08;98879.00;4862644;29;20543;-81
2022/12/16 00:13:54;;;;;;;0.70;0.70;;;;;;;-5.19;93.08;98872.88;4878857;29;20057;-83
2022/12/16 00:16:21;;;;;;;0.60;0.60;;;;;;;-5.16;93.12;98862.09;4879368;29;20076;-81
2022/12/16 00:18:48;;;;;;;0.70;0.70;;;;;;;-5.19;93.15;98871.09;4862346;29;20190;-82
2022/12/16 00:21:18;;;;;;;0.77;0.77;;;;;;;-5.15;93.12;98855.81;4878775;29;20080;-82
2022/12/16 00:23:46;;;;;;;0.80;0.80;;;;;;;-5.10;93.10;98864.09;4878603;29;20063;-83
2022/12/16 00:26:13;;;;;;;0.88;0.88;;;;;;;-5.08;92.81;98855.09;4861702;29;20053;-82
2022/12/16 00:28:42;;;;;;;0.90;0.90;;;;;;;-5.11;93.19;98852.75;4878231;29;20052;-81
2022/12/16 00:31:10;;;;;;;0.90;0.90;;;;;;;-5.08;93.45;98875.31;4877089;29;20140;-81
2022/12/16 00:33:37;;;;;;;0.90;0.90;;;;;;;-5.03;93.25;98866.00;4876757;29;20060;-82
2022/12/16 00:36:05;;;;;;;0.90;0.90;;;;;;;-5.02;93.18;98872.09;4877210;29;20053;-81
2022/12/16 00:38:32;;;;;;;0.90;0.90;;;;;;;-5.05;93.27;98852.16;4877004;29;20147;-81
2022/12/16 00:40:59;;;;;;;0.73;0.73;;;;;;;-5.04;93.13;98855.59;4877734;29;20057;-81
2022/12/16 00:43:26;;;;;;;0.70;0.70;;;;;;;-5.03;93.35;98849.38;4862141;29;20885;-79
2022/12/16 00:45:53;;;;;;;0.80;0.80;;;;;;;-5.04;93.55;98850.34;4878853;29;20195;-81
2022/12/16 00:48:24;;;;;;;0.90;0.90;;;;;;;-5.02;93.45;98849.22;4846909;29;20055;-82
2022/12/16 00:50:52;;;;;;;0.88;0.88;;;;;;;-4.98;93.29;98857.66;4896829;29;20531;-81
2022/12/16 00:53:22;;;;;;;0.93;0.93;;;;;;;-4.92;93.08;98851.78;4880801;29;20087;-81
2022/12/16 00:56:01;;;;;;;0.85;0.85;;;;;;;-4.95;93.07;98849.47;4879750;29;20128;-82
2022/12/16 00:58:28;;;;;;;0.77;0.77;;;;;;;-4.96;93.35;98866.25;4897151;29;20061;-81
2022/12/16 01:00:55;;;;;;;0.80;0.80;;;;;;;-4.94;93.39;98864.25;4879810;29;20488;-81
2022/12/16 01:03:22;;;;;;;0.73;0.73;;;;;;;-4.96;93.32;98855.72;4897134;29;20063;-82
2022/12/16 01:05:49;;;;;;;0.88;0.88;;;;;;;-4.94;93.31;98853.72;4880206;29;20048;-81
2022/12/16 01:08:18;;;;;;;0.90;0.90;;;;;;;-4.98;93.51;98862.91;4865235;29;20048;-80
2022/12/16 01:10:52;;;;;;;0.70;0.70;;;;;;;-4.96;93.66;98865.38;4896435;29;20116;-82
2022/12/16 01:13:23;;;;;;;0.80;0.80;;;;;;;-4.95;93.88;98873.16;4896559;29;20218;-81
2022/12/16 01:15:50;;;;;;;0.70;0.70;;;;;;;-4.94;93.87;98873.97;4896074;29;20139;-81
2022/12/16 01:18:18;;;;;;;0.60;0.60;;;;;;;-4.93;94.05;98871.19;4864243;29;20053;-81
2022/12/16 01:20:45;;;;;;;0.80;0.80;;;;;;;-4.91;94.11;98873.66;4896071;29;20180;-80
2022/12/16 01:23:12;;;;;;;1.00;1.00;;;;;;;-4.87;94.38;98873.22;4879634;29;20048;-81
2022/12/16 01:25:39;;;;;;;0.70;0.70;;;;;;;-4.87;94.10;98875.84;4895881;29;20106;-81
2022/12/16 01:28:06;;;;;;;0.90;0.90;;;;;;;-4.93;94.07;98870.38;4896122;29;20044;-80
2022/12/16 01:30:34;;;;;;;1.10;1.10;;;;;;;-4.86;94.27;98872.28;4895989;29;20062;-79
2022/12/16 01:33:01;;;;;;;0.70;0.70;;;;;;;-4.83;94.26;98877.22;4895559;29;20151;-81
2022/12/16 01:35:28;;;;;;;0.80;0.80;;;;;;;-4.80;94.15;98876.91;4896343;29;20159;-81
2022/12/16 01:38:15;;;;;;;0.95;0.95;;;;;;;-4.81;94.22;98877.91;4895854;29;20472;-81
2022/12/16 01:40:42;;;;;;;0.77;0.77;;;;;;;-4.79;94.05;98889.09;4878752;29;20076;-81
2022/12/16 01:43:11;;;;;;;0.95;0.95;;;;;;;-4.80;94.28;98874.28;4895879;29;20054;-81
2022/12/16 01:45:39;;;;;;;0.80;0.80;;;;;;;-4.80;94.30;98868.19;4879015;29;20059;-81
2022/12/16 01:48:24;;;;;;;0.90;0.90;;;;;;;-4.76;94.46;98880.09;4895747;29;20049;-81
2022/12/16 01:50:54;;;;;;;0.90;0.90;;;;;;;-4.73;94.16;98873.72;4895445;29;20056;-82
2022/12/16 01:53:21;;;;;;;0.60;0.60;;;;;;;-4.75;94.58;98876.47;4879252;29;20530;-80
2022/12/16 01:55:54;;;;;;;0.82;0.82;;;;;;;-4.73;94.73;98887.69;4895397;29;20131;-80
2022/12/16 01:58:25;;;;;;;0.63;0.63;;;;;;;-4.70;94.52;98891.84;4863796;29;20100;-80
2022/12/16 02:00:52;;;;;;;1.08;1.08;;;;;;;-4.68;94.36;98887.25;4895308;29;20098;-81
2022/12/16 02:03:21;;;;;;;0.80;0.80;;;;;;;-4.72;94.76;98877.97;4895688;29;20060;-80
2022/12/16 02:05:48;;;;;;;0.82;0.82;;;;;;;-4.68;94.57;98888.06;4878796;29;20538;-80
2022/12/16 02:08:19;;;;;;;0.70;0.70;;;;;;;-4.64;94.99;98893.84;4879093;29;20048;-81
2022/12/16 02:11:13;;;;;;;0.90;0.90;;;;;;;-4.65;94.68;98893.03;4895214;29;20060;-81
2022/12/16 02:13:54;;;;;;;0.82;0.82;;;;;;;-4.67;94.51;98889.72;4896062;29;20064;-82
2022/12/16 02:16:52;;;;;;;0.90;0.90;;;;;;;-4.64;94.89;98896.50;4863903;29;20058;-82
2022/12/16 02:19:42;;;;;;;0.85;0.85;;;;;;;-4.61;95.16;98893.53;4878532;29;20188;-80
2022/12/16 02:22:43;;;;;;;0.70;0.70;;;;;;;-4.63;95.34;98888.44;4895505;29;20100;-82
2022/12/16 02:25:40;;;;;;;0.80;0.80;;;;;;;-4.64;95.35;98888.59;4878641;29;20056;-82
2022/12/16 02:28:12;;;;;;;0.85;0.85;;;;;;;-4.64;95.26;98892.03;4878511;29;20060;-82
2022/12/16 02:30:48;;;;;;;0.88;0.88;;;;;;;-4.61;95.69;98890.91;4878308;29;20060;-83
2022/12/16 02:33:30;;;;;;;0.80;0.80;;;;;;;-4.60;95.56;98903.13;4847808;29;20143;-81
2022/12/16 02:36:07;;;;;;;0.63;0.63;;;;;;;-4.59;95.53;98899.50;4895269;29;20060;-83
2022/12/16 02:38:54;;;;;;;0.80;0.80;;;;;;;-4.53;95.53;98895.44;4878719;29;20052;-81
2022/12/16 02:41:41;;;;;;;0.60;0.60;;;;;;;-4.50;95.42;98905.69;4895720;29;20109;-81
2022/12/16 02:44:09;;;;;;;0.82;0.82;;;;;;;-4.52;95.56;98907.63;4897068;29;20048;-81
2022/12/16 02:46:42;;;;;;;0.90;0.90;;;;;;;-4.50;95.54;98887.25;4882582;29;20507;-81
2022/12/16 02:49:29;;;;;;;0.90;0.90;;;;;;;-4.51;95.54;98894.31;4882287;29;20061;-82
2022/12/16 02:51:58;;;;;;;0.90;0.90;;;;;;;-4.50;95.51;98897.78;4898433;29;20068;-81
2022/12/16 02:54:25;;;;;;;0.60;0.60;;;;;;;-4.51;95.44;98891.66;4882526;29;20071;-81
2022/12/16 02:57:03;;;;;;;0.90;0.90;;;;;;;-4.50;95.73;98897.78;4866405;29;20503;-81
2022/12/16 02:59:40;;;;;;;0.60;0.60;;;;;;;-4.49;95.74;98900.25;4882269;29;20052;-81
2022/12/16 03:02:27;;;;;;;0.77;0.77;;;;;;;-4.48;95.98;98907.19;4882022;29;20063;-81
2022/12/16 03:05:11;;;;;;;0.77;0.77;;;;;;;-4.48;95.80;98907.19;4882081;29;20101;-81
2022/12/16 03:07:40;;;;;;;1.00;1.00;;;;;;;-4.48;96.11;98903.72;4866007;29;20072;-82
2022/12/16 03:10:11;;;;;;;0.80;0.80;;;;;;;-4.49;96.01;98904.69;4898150;29;20061;-81
2022/12/16 03:12:41;;;;;;;0.80;0.80;;;;;;;-4.51;96.40;98894.31;4881309;29;20055;-81
2022/12/16 03:15:09;;;;;;;1.00;1.00;;;;;;;-4.46;96.35;98902.56;4866576;29;20049;-82
2022/12/16 03:17:37;;;;;;;0.73;0.73;;;;;;;-4.55;96.49;98892.16;4851421;29;20108;-81
2022/12/16 03:20:44;;;;;;;0.77;0.77;;;;;;;-4.45;96.56;98906.88;4898439;29;20048;-82
2022/12/16 03:23:16;;;;;;;0.82;0.82;;;;;;;-4.50;96.67;98903.88;4881625;29;20056;-81
2022/12/16 03:25:46;;;;;;;0.90;0.90;;;;;;;-4.45;97.10;98908.69;4881358;29;20055;-82
2022/12/16 03:28:35;;;;;;;0.82;0.82;;;;;;;-4.46;96.98;98910.47;4866213;29;20143;-81
2022/12/16 03:31:29;;;;;;;0.60;0.60;;;;;;;-4.45;97.12;98914.78;4865844;29;20048;-81
2022/12/16 03:34:24;;;;;;;0.65;0.65;;;;;;;-4.46;97.21;98914.94;4895072;29;20120;-81
2022/12/16 03:36:56;;;;;;;0.90;0.90;;;;;;;-4.44;97.37;98918.25;4897740;29;20048;-82
2022/12/16 03:39:25;;;;;;;0.90;0.90;;;;;;;-4.42;97.49;98922.38;4881063;29;20500;-81
2022/12/16 03:41:53;;;;;;;0.60;0.60;;;;;;;-4.38;97.50;98929.03;4881410;29;20419;-82
2022/12/16 03:44:22;;;;;;;0.90;0.90;;;;;;;-4.39;97.32;98937.06;4898174;29;20062;-81
2022/12/16 03:46:51;;;;;;;0.80;0.80;;;;;;;-4.35;97.66;98933.16;4897831;29;20567;-82
2022/12/16 03:49:18;;;;;;;0.85;0.85;;;;;;;-4.30;97.66;98941.44;4897639;29;20060;-82
2022/12/16 03:51:45;;;;;;;0.98;0.98;;;;;;;-4.30;97.68;98935.31;4880228;29;20188;-82
2022/12/16 03:54:12;;;;;;;0.80;0.80;;;;;;;-4.31;97.93;98939.75;4897674;29;20073;-80
2022/12/16 03:56:39;;;;;;;0.80;0.80;;;;;;;-4.31;97.85;98947.66;4896793;29;20475;-82
2022/12/16 03:59:06;;;;;;;0.95;0.95;;;;;;;-4.32;97.71;98946.03;4897813;29;20050;-81
2022/12/16 04:01:33;;;;;;;0.90;0.90;;;;;;;-4.27;97.62;98962.22;4897915;29;20059;-82
2022/12/16 04:04:00;;;;;;;1.00;1.00;;;;;;;-4.24;97.56;98961.09;4864922;29;20529;-82
2022/12/16 04:06:27;;;;;;;0.80;0.80;;;;;;;-4.24;97.62;98963.72;4897391;29;20102;-82
2022/12/16 04:08:54;;;;;;;0.80;0.80;;;;;;;-4.20;97.82;98973.00;4897172;29;20481;-83
2022/12/16 04:25:23;;;;;;;0.60;0.60;;;;;;;-4.17;98.05;98999.03;4897406;29;20060;-82
2022/12/16 04:27:50;;;;;;;0.90;0.90;;;;;;;-4.16;97.83;98998.88;4880447;29;20101;-81
2022/12/16 04:30:18;;;;;;;0.75;0.75;;;;;;;-4.13;98.00;99021.47;4897171;29;20056;-83
